Albert, OK

7:55 PM CDT on October 01, 2014 (GMT -0500)
Peck's country | Change Station
CLOSE
Current Station
Personal Weather Station
Location: Anadarko, OK
Elevation: 1255 ft
Nearby Weather Stations

Elev 1255 ft 35.10 °N, 98.32 °W | Updated 4 minutes ago

Clear
Clear
84.4 °F
Feels Like 85 °F
N
2.0
Wind Variable Wind from ESE
Gusts 5.0 mph

Today
High -- | Low -- °F
--% Chance of Precip.
Yesterday
High -- | Low -- °F
Precip. -- in
7:28 AM 7:17 PM
First Quarter, 53% visible
Pressure 29.76 in
Visibility 10.0 miles
Clouds Scattered Clouds 11000 ft
Heat Index 85 °F
Dew Point 63 °F
Humidity 49%
Rainfall 0.00 in
Snow Depth Not available.
UV 0 out of 12
Pollen 9.60 out of 12
Air Quality Not available.
Flu Activity Not available.
METAR KRQO 010135Z AUTO 14008KT 10SM SCT110 25/14 A2976 RMK AO2

More Conditions Fewer Conditions

Pressure 29.76 in
Visibility 10.0 miles
Clouds Scattered Clouds 11000 ft
Heat Index 85 °F
Dew Point 63 °F
Humidity 49%
Rainfall 0.00 in
Snow Depth Not available.
UV 0 out of 12
Pollen 9.60 out of 12
Air Quality Not available.
Flu Activity Not available.
METAR KRQO 010135Z AUTO 14008KT 10SM SCT110 25/14 A2976 RMK AO2

More Conditions Fewer Conditions

10-Day Weather Forecast

Almanac

Astronomy

Oct. 01, 2014 Rise Set
Actual Time 7:28 AM CDT 7:17 PM CDT
Civil Twilight 7:03 AM CDT 7:42 PM CDT
Nautical Twilight 6:33 AM CDT 8:12 PM CDT
Astronomical Twilight 6:04 AM CDT 8:41 PM CDT
Moon 2:21 PM CDT (10/1) 12:00 AM CDT (10/1)
Length of Visible Light 12h 39m
Length of Day
11h 48m
Tomorrow will be 2m 12s shorter.
First Quarter, 53% of the Moon is Illuminated
Today
First Quarter
Oct 8
Full
Oct 15
Last Quarter
Oct 23
New
Oct 30
First Quarter

Today's Extremes

State Highs State Lows

Community

WunderPhotos

Upload Photos

1,758,105 photos uploaded!

WunderBlogs® & News

Nearby

Snow Depth

Station Depth Elevation
No new snow has been reported.

Earthquake Activity

City Distance Mag. Time & Date
Guthrie, Oklahoma 70 miles 3.0 5:15 PM CDT
2014-10-01
Perry, Oklahoma 106 miles 2.8 4:17 PM CDT
2014-10-01
Medford, Oklahoma 108 miles 3.6 1:18 PM CDT
2014-10-01
Harper, Kansas 140 miles 3.3 1:11 AM CDT
2014-10-01
Minimum magnitude displayed is 2.5.

Coastal Water Temperatures

Place Temperature
No Stations Reporting

Nearby Weather Stations